sensor_id;sensor_type;location;lat;lon;timestamp;P1;durP1;ratioP1;P2;durP2;ratioP2
17727;SDS011;8984;49.268;12.302;2023-07-20T00:02:28;7.33;;;4.00;;
17727;SDS011;8984;49.268;12.302;2023-07-20T00:04:57;6.83;;;4.17;;
17727;SDS011;8984;49.268;12.302;2023-07-20T00:07:30;6.30;;;4.27;;
17727;SDS011;8984;49.268;12.302;2023-07-20T00:10:04;6.23;;;4.13;;
17727;SDS011;8984;49.268;12.302;2023-07-20T00:12:38;5.80;;;4.20;;
17727;SDS011;8984;49.268;12.302;2023-07-20T00:15:05;6.00;;;3.73;;
17727;SDS011;8984;49.268;12.302;2023-07-20T00:17:54;5.13;;;4.27;;
17727;SDS011;8984;49.268;12.302;2023-07-20T00:20:23;6.13;;;4.30;;
17727;SDS011;8984;49.268;12.302;2023-07-20T00:25:39;7.20;;;4.90;;
17727;SDS011;8984;49.268;12.302;2023-07-20T00:28:07;9.17;;;4.67;;
17727;SDS011;8984;49.268;12.302;2023-07-20T00:30:50;9.67;;;4.53;;
17727;SDS011;8984;49.268;12.302;2023-07-20T00:33:23;9.23;;;4.47;;
17727;SDS011;8984;49.268;12.302;2023-07-20T00:36:12;8.00;;;4.53;;
17727;SDS011;8984;49.268;12.302;2023-07-20T00:38:43;6.70;;;4.73;;
17727;SDS011;8984;49.268;12.302;2023-07-20T00:41:12;10.40;;;4.50;;
17727;SDS011;8984;49.268;12.302;2023-07-20T00:43:40;6.07;;;4.10;;
17727;SDS011;8984;49.268;12.302;2023-07-20T00:46:07;9.33;;;4.53;;
17727;SDS011;8984;49.268;12.302;2023-07-20T00:48:38;6.10;;;3.73;;
17727;SDS011;8984;49.268;12.302;2023-07-20T00:51:07;8.80;;;4.03;;
17727;SDS011;8984;49.268;12.302;2023-07-20T00:53:39;8.73;;;4.00;;
17727;SDS011;8984;49.268;12.302;2023-07-20T00:56:13;5.40;;;3.77;;
17727;SDS011;8984;49.268;12.302;2023-07-20T00:58:48;6.67;;;4.20;;
17727;SDS011;8984;49.268;12.302;2023-07-20T01:01:21;5.53;;;3.80;;
17727;SDS011;8984;49.268;12.302;2023-07-20T01:03:51;5.83;;;4.03;;
17727;SDS011;8984;49.268;12.302;2023-07-20T01:06:22;7.23;;;3.90;;
17727;SDS011;8984;49.268;12.302;2023-07-20T01:09:02;7.00;;;4.20;;
17727;SDS011;8984;49.268;12.302;2023-07-20T01:11:56;6.23;;;4.30;;
17727;SDS011;8984;49.268;12.302;2023-07-20T01:17:20;6.70;;;5.00;;
17727;SDS011;8984;49.268;12.302;2023-07-20T01:19:51;6.43;;;4.67;;
17727;SDS011;8984;49.268;12.302;2023-07-20T01:22:25;8.77;;;4.60;;
17727;SDS011;8984;49.268;12.302;2023-07-20T01:25:17;8.30;;;4.00;;
17727;SDS011;8984;49.268;12.302;2023-07-20T01:31:14;6.23;;;4.70;;
17727;SDS011;8984;49.268;12.302;2023-07-20T01:33:52;8.27;;;4.83;;
17727;SDS011;8984;49.268;12.302;2023-07-20T01:36:29;6.53;;;5.00;;
17727;SDS011;8984;49.268;12.302;2023-07-20T01:39:09;7.67;;;5.33;;
17727;SDS011;8984;49.268;12.302;2023-07-20T01:41:48;8.17;;;5.23;;
17727;SDS011;8984;49.268;12.302;2023-07-20T01:44:17;7.27;;;5.00;;
17727;SDS011;8984;49.268;12.302;2023-07-20T01:46:57;10.07;;;6.37;;
17727;SDS011;8984;49.268;12.302;2023-07-20T01:49:24;13.43;;;6.23;;
17727;SDS011;8984;49.268;12.302;2023-07-20T01:51:55;15.20;;;6.70;;
17727;SDS011;8984;49.268;12.302;2023-07-20T01:54:25;10.20;;;6.57;;
17727;SDS011;8984;49.268;12.302;2023-07-20T01:56:57;7.97;;;5.30;;
17727;SDS011;8984;49.268;12.302;2023-07-20T01:59:37;6.43;;;5.03;;
17727;SDS011;8984;49.268;12.302;2023-07-20T02:02:12;7.33;;;5.03;;
17727;SDS011;8984;49.268;12.302;2023-07-20T02:04:43;9.70;;;5.00;;
17727;SDS011;8984;49.268;12.302;2023-07-20T02:07:13;8.90;;;4.80;;
17727;SDS011;8984;49.268;12.302;2023-07-20T02:09:51;11.73;;;5.73;;
17727;SDS011;8984;49.268;12.302;2023-07-20T02:12:20;6.60;;;4.57;;
17727;SDS011;8984;49.268;12.302;2023-07-20T02:14:48;7.60;;;4.73;;
17727;SDS011;8984;49.268;12.302;2023-07-20T02:17:23;7.70;;;4.90;;
17727;SDS011;8984;49.268;12.302;2023-07-20T02:19:53;7.03;;;4.97;;
17727;SDS011;8984;49.268;12.302;2023-07-20T02:22:26;8.70;;;5.37;;
17727;SDS011;8984;49.268;12.302;2023-07-20T02:25:02;8.07;;;4.53;;
17727;SDS011;8984;49.268;12.302;2023-07-20T02:27:48;6.07;;;4.17;;
17727;SDS011;8984;49.268;12.302;2023-07-20T02:30:20;9.10;;;3.83;;
17727;SDS011;8984;49.268;12.302;2023-07-20T02:32:50;6.87;;;3.90;;
17727;SDS011;8984;49.268;12.302;2023-07-20T02:35:24;6.87;;;4.30;;
17727;SDS011;8984;49.268;12.302;2023-07-20T02:37:53;5.60;;;4.00;;
17727;SDS011;8984;49.268;12.302;2023-07-20T02:40:23;10.87;;;4.80;;
17727;SDS011;8984;49.268;12.302;2023-07-20T02:42:50;8.37;;;4.27;;
17727;SDS011;8984;49.268;12.302;2023-07-20T02:45:18;7.53;;;4.70;;
17727;SDS011;8984;49.268;12.302;2023-07-20T02:47:47;11.10;;;4.30;;
17727;SDS011;8984;49.268;12.302;2023-07-20T02:53:07;6.03;;;4.30;;
17727;SDS011;8984;49.268;12.302;2023-07-20T02:55:38;8.93;;;4.33;;
17727;SDS011;8984;49.268;12.302;2023-07-20T02:58:11;10.93;;;4.73;;
17727;SDS011;8984;49.268;12.302;2023-07-20T03:00:42;7.17;;;4.50;;
17727;SDS011;8984;49.268;12.302;2023-07-20T03:03:15;8.30;;;4.53;;
17727;SDS011;8984;49.268;12.302;2023-07-20T03:05:46;8.03;;;4.23;;
17727;SDS011;8984;49.268;12.302;2023-07-20T03:08:27;8.57;;;4.53;;
17727;SDS011;8984;49.268;12.302;2023-07-20T03:11:05;7.07;;;4.20;;
17727;SDS011;8984;49.268;12.302;2023-07-20T03:13:34;8.57;;;4.70;;
17727;SDS011;8984;49.268;12.302;2023-07-20T03:16:06;11.00;;;4.90;;
17727;SDS011;8984;49.268;12.302;2023-07-20T03:18:40;8.50;;;4.90;;
17727;SDS011;8984;49.268;12.302;2023-07-20T03:21:16;8.00;;;4.07;;
17727;SDS011;8984;49.268;12.302;2023-07-20T03:23:50;8.57;;;4.47;;
17727;SDS011;8984;49.268;12.302;2023-07-20T03:26:24;7.43;;;3.90;;
17727;SDS011;8984;49.268;12.302;2023-07-20T03:28:52;6.77;;;4.00;;
17727;SDS011;8984;49.268;12.302;2023-07-20T03:31:20;4.73;;;3.80;;
17727;SDS011;8984;49.268;12.302;2023-07-20T03:33:56;7.43;;;4.57;;
17727;SDS011;8984;49.268;12.302;2023-07-20T03:36:27;5.97;;;4.27;;
17727;SDS011;8984;49.268;12.302;2023-07-20T03:39:03;6.10;;;4.20;;
17727;SDS011;8984;49.268;12.302;2023-07-20T03:41:31;7.67;;;4.27;;
17727;SDS011;8984;49.268;12.302;2023-07-20T03:43:58;10.80;;;4.00;;
17727;SDS011;8984;49.268;12.302;2023-07-20T03:46:32;5.70;;;4.10;;
17727;SDS011;8984;49.268;12.302;2023-07-20T03:49:01;6.13;;;4.40;;
17727;SDS011;8984;49.268;12.302;2023-07-20T03:51:36;5.10;;;3.90;;
17727;SDS011;8984;49.268;12.302;2023-07-20T03:54:07;6.43;;;4.00;;
17727;SDS011;8984;49.268;12.302;2023-07-20T03:56:46;5.27;;;4.17;;
17727;SDS011;8984;49.268;12.302;2023-07-20T03:59:36;6.47;;;4.23;;
17727;SDS011;8984;49.268;12.302;2023-07-20T04:02:14;6.37;;;4.23;;
17727;SDS011;8984;49.268;12.302;2023-07-20T04:04:49;8.17;;;4.13;;
17727;SDS011;8984;49.268;12.302;2023-07-20T04:07:23;6.33;;;4.80;;
17727;SDS011;8984;49.268;12.302;2023-07-20T04:09:54;7.30;;;4.40;;
17727;SDS011;8984;49.268;12.302;2023-07-20T04:12:41;5.53;;;3.90;;
17727;SDS011;8984;49.268;12.302;2023-07-20T04:15:08;5.17;;;4.07;;
17727;SDS011;8984;49.268;12.302;2023-07-20T04:17:51;11.73;;;4.90;;
17727;SDS011;8984;49.268;12.302;2023-07-20T04:20:21;8.33;;;5.57;;
17727;SDS011;8984;49.268;12.302;2023-07-20T04:22:50;6.67;;;4.73;;
17727;SDS011;8984;49.268;12.302;2023-07-20T04:25:26;9.23;;;5.37;;
17727;SDS011;8984;49.268;12.302;2023-07-20T04:27:54;11.37;;;5.30;;
17727;SDS011;8984;49.268;12.302;2023-07-20T04:30:21;7.10;;;4.43;;
17727;SDS011;8984;49.268;12.302;2023-07-20T04:32:57;8.97;;;5.03;;
17727;SDS011;8984;49.268;12.302;2023-07-20T04:35:45;9.07;;;4.83;;
17727;SDS011;8984;49.268;12.302;2023-07-20T04:38:25;8.30;;;4.73;;
17727;SDS011;8984;49.268;12.302;2023-07-20T04:41:01;10.10;;;4.83;;
17727;SDS011;8984;49.268;12.302;2023-07-20T04:43:40;8.10;;;4.60;;
17727;SDS011;8984;49.268;12.302;2023-07-20T04:46:13;7.90;;;4.47;;
17727;SDS011;8984;49.268;12.302;2023-07-20T04:48:44;7.87;;;4.07;;
17727;SDS011;8984;49.268;12.302;2023-07-20T04:51:14;7.83;;;4.23;;
17727;SDS011;8984;49.268;12.302;2023-07-20T04:53:49;7.07;;;4.43;;
17727;SDS011;8984;49.268;12.302;2023-07-20T04:56:17;7.47;;;4.37;;
17727;SDS011;8984;49.268;12.302;2023-07-20T04:58:52;7.80;;;3.97;;
17727;SDS011;8984;49.268;12.302;2023-07-20T05:01:30;5.60;;;4.13;;
17727;SDS011;8984;49.268;12.302;2023-07-20T05:04:06;7.73;;;4.03;;
17727;SDS011;8984;49.268;12.302;2023-07-20T05:06:53;7.13;;;4.40;;
17727;SDS011;8984;49.268;12.302;2023-07-20T05:12:27;8.10;;;4.47;;
17727;SDS011;8984;49.268;12.302;2023-07-20T05:14:58;7.20;;;4.17;;
17727;SDS011;8984;49.268;12.302;2023-07-20T05:17:31;8.00;;;4.13;;
17727;SDS011;8984;49.268;12.302;2023-07-20T05:20:03;7.30;;;4.47;;
17727;SDS011;8984;49.268;12.302;2023-07-20T05:22:35;8.03;;;4.17;;
17727;SDS011;8984;49.268;12.302;2023-07-20T05:25:17;7.10;;;3.93;;
17727;SDS011;8984;49.268;12.302;2023-07-20T05:27:49;7.60;;;3.90;;
17727;SDS011;8984;49.268;12.302;2023-07-20T05:30:27;9.27;;;3.90;;
17727;SDS011;8984;49.268;12.302;2023-07-20T05:32:59;6.83;;;3.87;;
17727;SDS011;8984;49.268;12.302;2023-07-20T05:35:29;7.40;;;4.10;;
17727;SDS011;8984;49.268;12.302;2023-07-20T05:37:56;9.07;;;4.10;;
17727;SDS011;8984;49.268;12.302;2023-07-20T05:40:47;5.05;;;3.75;;
17727;SDS011;8984;49.268;12.302;2023-07-20T05:43:16;7.55;;;3.63;;
17727;SDS011;8984;49.268;12.302;2023-07-20T05:45:47;5.97;;;3.75;;
17727;SDS011;8984;49.268;12.302;2023-07-20T05:48:17;5.47;;;3.67;;
17727;SDS011;8984;49.268;12.302;2023-07-20T05:50:46;8.48;;;3.85;;
17727;SDS011;8984;49.268;12.302;2023-07-20T05:53:19;5.93;;;3.80;;
17727;SDS011;8984;49.268;12.302;2023-07-20T05:55:54;8.23;;;4.10;;
17727;SDS011;8984;49.268;12.302;2023-07-20T05:58:22;5.28;;;4.00;;
17727;SDS011;8984;49.268;12.302;2023-07-20T06:00:50;7.25;;;3.83;;
17727;SDS011;8984;49.268;12.302;2023-07-20T06:03:30;6.22;;;3.72;;
17727;SDS011;8984;49.268;12.302;2023-07-20T06:06:16;7.82;;;3.63;;
17727;SDS011;8984;49.268;12.302;2023-07-20T06:08:48;5.93;;;3.67;;
17727;SDS011;8984;49.268;12.302;2023-07-20T06:11:31;9.18;;;3.90;;
17727;SDS011;8984;49.268;12.302;2023-07-20T06:14:04;10.07;;;3.55;;
17727;SDS011;8984;49.268;12.302;2023-07-20T06:16:35;6.65;;;3.67;;
17727;SDS011;8984;49.268;12.302;2023-07-20T06:19:11;4.90;;;3.10;;
17727;SDS011;8984;49.268;12.302;2023-07-20T06:21:39;4.25;;;2.95;;
17727;SDS011;8984;49.268;12.302;2023-07-20T06:24:10;4.57;;;2.95;;
17727;SDS011;8984;49.268;12.302;2023-07-20T06:26:51;5.85;;;2.97;;
17727;SDS011;8984;49.268;12.302;2023-07-20T06:29:26;4.07;;;2.95;;
17727;SDS011;8984;49.268;12.302;2023-07-20T06:31:57;4.72;;;3.00;;
17727;SDS011;8984;49.268;12.302;2023-07-20T06:34:26;5.90;;;2.95;;
17727;SDS011;8984;49.268;12.302;2023-07-20T06:36:54;6.68;;;3.00;;
17727;SDS011;8984;49.268;12.302;2023-07-20T06:39:29;5.93;;;3.03;;
17727;SDS011;8984;49.268;12.302;2023-07-20T06:42:15;7.78;;;3.33;;
17727;SDS011;8984;49.268;12.302;2023-07-20T06:44:51;6.65;;;3.10;;
17727;SDS011;8984;49.268;12.302;2023-07-20T06:47:20;5.45;;;3.10;;
17727;SDS011;8984;49.268;12.302;2023-07-20T06:49:49;6.30;;;3.20;;
17727;SDS011;8984;49.268;12.302;2023-07-20T06:52:17;7.03;;;2.92;;
17727;SDS011;8984;49.268;12.302;2023-07-20T06:54:49;5.40;;;2.80;;
17727;SDS011;8984;49.268;12.302;2023-07-20T06:57:25;4.90;;;2.72;;
17727;SDS011;8984;49.268;12.302;2023-07-20T06:59:57;5.03;;;2.80;;
17727;SDS011;8984;49.268;12.302;2023-07-20T07:02:25;2.90;;;2.60;;
17727;SDS011;8984;49.268;12.302;2023-07-20T07:05:00;5.20;;;2.25;;
17727;SDS011;8984;49.268;12.302;2023-07-20T07:07:28;4.75;;;2.70;;
17727;SDS011;8984;49.268;12.302;2023-07-20T07:09:57;3.80;;;2.35;;
17727;SDS011;8984;49.268;12.302;2023-07-20T07:12:43;4.55;;;2.63;;
17727;SDS011;8984;49.268;12.302;2023-07-20T07:15:12;3.88;;;2.38;;
17727;SDS011;8984;49.268;12.302;2023-07-20T07:17:40;3.65;;;2.47;;
17727;SDS011;8984;49.268;12.302;2023-07-20T07:20:35;4.60;;;2.60;;
17727;SDS011;8984;49.268;12.302;2023-07-20T07:23:15;4.07;;;2.33;;
17727;SDS011;8984;49.268;12.302;2023-07-20T07:25:51;5.38;;;2.97;;
17727;SDS011;8984;49.268;12.302;2023-07-20T07:28:22;3.80;;;2.47;;
17727;SDS011;8984;49.268;12.302;2023-07-20T07:30:54;5.35;;;2.95;;
17727;SDS011;8984;49.268;12.302;2023-07-20T07:33:28;4.05;;;2.15;;
17727;SDS011;8984;49.268;12.302;2023-07-20T07:36:04;5.47;;;2.50;;
17727;SDS011;8984;49.268;12.302;2023-07-20T07:38:37;5.63;;;2.20;;
17727;SDS011;8984;49.268;12.302;2023-07-20T07:41:08;8.02;;;2.40;;
17727;SDS011;8984;49.268;12.302;2023-07-20T07:46:36;4.13;;;2.55;;
17727;SDS011;8984;49.268;12.302;2023-07-20T07:49:13;3.80;;;2.67;;
17727;SDS011;8984;49.268;12.302;2023-07-20T07:51:41;4.20;;;2.58;;
17727;SDS011;8984;49.268;12.302;2023-07-20T07:54:08;3.15;;;2.13;;
17727;SDS011;8984;49.268;12.302;2023-07-20T07:56:47;7.57;;;2.65;;
17727;SDS011;8984;49.268;12.302;2023-07-20T07:59:28;4.78;;;2.42;;
17727;SDS011;8984;49.268;12.302;2023-07-20T08:02:03;5.70;;;2.30;;
17727;SDS011;8984;49.268;12.302;2023-07-20T08:04:33;5.85;;;2.15;;
17727;SDS011;8984;49.268;12.302;2023-07-20T08:07:07;4.55;;;2.10;;
17727;SDS011;8984;49.268;12.302;2023-07-20T08:09:34;3.20;;;2.20;;
17727;SDS011;8984;49.268;12.302;2023-07-20T08:12:01;4.47;;;2.10;;
17727;SDS011;8984;49.268;12.302;2023-07-20T08:14:32;4.63;;;2.00;;
17727;SDS011;8984;49.268;12.302;2023-07-20T08:17:03;2.78;;;2.00;;
17727;SDS011;8984;49.268;12.302;2023-07-20T08:19:32;2.47;;;1.70;;
17727;SDS011;8984;49.268;12.302;2023-07-20T08:22:07;3.25;;;2.20;;
17727;SDS011;8984;49.268;12.302;2023-07-20T08:24:39;5.50;;;2.13;;
17727;SDS011;8984;49.268;12.302;2023-07-20T08:27:38;4.40;;;2.20;;
17727;SDS011;8984;49.268;12.302;2023-07-20T08:30:13;3.00;;;1.95;;
17727;SDS011;8984;49.268;12.302;2023-07-20T08:32:40;7.03;;;2.28;;
17727;SDS011;8984;49.268;12.302;2023-07-20T08:35:09;3.85;;;2.22;;
17727;SDS011;8984;49.268;12.302;2023-07-20T08:37:38;7.07;;;1.90;;
17727;SDS011;8984;49.268;12.302;2023-07-20T08:40:07;3.45;;;2.00;;
17727;SDS011;8984;49.268;12.302;2023-07-20T08:42:47;3.13;;;1.95;;
17727;SDS011;8984;49.268;12.302;2023-07-20T08:45:23;2.83;;;1.95;;
17727;SDS011;8984;49.268;12.302;2023-07-20T08:47:58;3.28;;;1.90;;
17727;SDS011;8984;49.268;12.302;2023-07-20T08:50:43;3.88;;;2.05;;
17727;SDS011;8984;49.268;12.302;2023-07-20T08:53:20;8.10;;;2.50;;
17727;SDS011;8984;49.268;12.302;2023-07-20T08:55:50;4.18;;;2.28;;
17727;SDS011;8984;49.268;12.302;2023-07-20T08:58:18;6.07;;;2.30;;
17727;SDS011;8984;49.268;12.302;2023-07-20T09:00:53;4.07;;;2.03;;
17727;SDS011;8984;49.268;12.302;2023-07-20T09:03:24;4.70;;;2.10;;
17727;SDS011;8984;49.268;12.302;2023-07-20T09:05:59;5.50;;;1.88;;
17727;SDS011;8984;49.268;12.302;2023-07-20T09:08:27;4.25;;;1.58;;
17727;SDS011;8984;49.268;12.302;2023-07-20T09:10:57;3.58;;;1.75;;
17727;SDS011;8984;49.268;12.302;2023-07-20T09:13:30;3.80;;;1.60;;
17727;SDS011;8984;49.268;12.302;2023-07-20T09:16:01;17.23;;;9.10;;
17727;SDS011;8984;49.268;12.302;2023-07-20T09:18:37;2.08;;;1.65;;
17727;SDS011;8984;49.268;12.302;2023-07-20T09:21:11;2.85;;;1.42;;
17727;SDS011;8984;49.268;12.302;2023-07-20T09:23:40;2.75;;;1.27;;
17727;SDS011;8984;49.268;12.302;2023-07-20T09:26:11;3.67;;;1.60;;
17727;SDS011;8984;49.268;12.302;2023-07-20T09:28:43;6.93;;;2.53;;
17727;SDS011;8984;49.268;12.302;2023-07-20T09:31:18;5.72;;;1.55;;
17727;SDS011;8984;49.268;12.302;2023-07-20T09:33:52;7.05;;;1.85;;
17727;SDS011;8984;49.268;12.302;2023-07-20T09:36:49;2.92;;;1.73;;
17727;SDS011;8984;49.268;12.302;2023-07-20T09:39:18;2.83;;;1.60;;
17727;SDS011;8984;49.268;12.302;2023-07-20T09:41:59;5.32;;;1.65;;
17727;SDS011;8984;49.268;12.302;2023-07-20T09:44:29;2.72;;;1.52;;
17727;SDS011;8984;49.268;12.302;2023-07-20T09:47:03;3.45;;;1.50;;
17727;SDS011;8984;49.268;12.302;2023-07-20T09:49:31;1.30;;;1.10;;
17727;SDS011;8984;49.268;12.302;2023-07-20T09:52:07;4.30;;;1.60;;
17727;SDS011;8984;49.268;12.302;2023-07-20T09:54:46;3.90;;;1.30;;
17727;SDS011;8984;49.268;12.302;2023-07-20T09:57:17;2.60;;;1.48;;
17727;SDS011;8984;49.268;12.302;2023-07-20T09:59:47;2.38;;;1.20;;
17727;SDS011;8984;49.268;12.302;2023-07-20T10:02:22;1.85;;;1.30;;
17727;SDS011;8984;49.268;12.302;2023-07-20T10:04:58;3.95;;;1.80;;
17727;SDS011;8984;49.268;12.302;2023-07-20T10:07:30;6.70;;;1.70;;
17727;SDS011;8984;49.268;12.302;2023-07-20T10:09:59;5.32;;;1.58;;
17727;SDS011;8984;49.268;12.302;2023-07-20T10:12:31;7.82;;;1.60;;
17727;SDS011;8984;49.268;12.302;2023-07-20T10:15:09;2.75;;;1.13;;
17727;SDS011;8984;49.268;12.302;2023-07-20T10:18:02;2.30;;;1.40;;
17727;SDS011;8984;49.268;12.302;2023-07-20T10:20:50;2.33;;;1.75;;
17727;SDS011;8984;49.268;12.302;2023-07-20T10:23:26;2.90;;;1.40;;
17727;SDS011;8984;49.268;12.302;2023-07-20T10:25:55;2.40;;;1.50;;
17727;SDS011;8984;49.268;12.302;2023-07-20T10:28:31;1.38;;;1.10;;
17727;SDS011;8984;49.268;12.302;2023-07-20T10:31:09;4.57;;;1.40;;
17727;SDS011;8984;49.268;12.302;2023-07-20T10:33:59;3.72;;;1.27;;
17727;SDS011;8984;49.268;12.302;2023-07-20T10:36:33;2.53;;;1.48;;
17727;SDS011;8984;49.268;12.302;2023-07-20T10:39:28;2.17;;;1.33;;
17727;SDS011;8984;49.268;12.302;2023-07-20T10:42:03;2.35;;;1.27;;
17727;SDS011;8984;49.268;12.302;2023-07-20T10:44:40;3.88;;;1.42;;
17727;SDS011;8984;49.268;12.302;2023-07-20T10:47:13;1.65;;;1.20;;
17727;SDS011;8984;49.268;12.302;2023-07-20T10:53:03;4.55;;;1.20;;
17727;SDS011;8984;49.268;12.302;2023-07-20T10:55:38;3.28;;;1.60;;
17727;SDS011;8984;49.268;12.302;2023-07-20T10:58:10;6.15;;;1.63;;
17727;SDS011;8984;49.268;12.302;2023-07-20T11:01:00;16.42;;;2.05;;
17727;SDS011;8984;49.268;12.302;2023-07-20T11:03:48;2.88;;;1.52;;
17727;SDS011;8984;49.268;12.302;2023-07-20T11:06:32;2.03;;;1.27;;
17727;SDS011;8984;49.268;12.302;2023-07-20T11:09:10;3.22;;;1.50;;
17727;SDS011;8984;49.268;12.302;2023-07-20T11:11:41;7.38;;;1.30;;
17727;SDS011;8984;49.268;12.302;2023-07-20T11:14:25;3.53;;;1.23;;
17727;SDS011;8984;49.268;12.302;2023-07-20T11:16:57;3.97;;;1.45;;
17727;SDS011;8984;49.268;12.302;2023-07-20T11:19:41;3.13;;;1.48;;
17727;SDS011;8984;49.268;12.302;2023-07-20T11:22:27;2.78;;;1.30;;
17727;SDS011;8984;49.268;12.302;2023-07-20T11:25:02;4.43;;;1.30;;
17727;SDS011;8984;49.268;12.302;2023-07-20T11:27:43;1.88;;;1.10;;
17727;SDS011;8984;49.268;12.302;2023-07-20T11:30:18;3.55;;;1.25;;
17727;SDS011;8984;49.268;12.302;2023-07-20T11:32:47;1.70;;;1.10;;
17727;SDS011;8984;49.268;12.302;2023-07-20T11:35:17;4.22;;;1.20;;
17727;SDS011;8984;49.268;12.302;2023-07-20T11:37:50;3.05;;;1.50;;
17727;SDS011;8984;49.268;12.302;2023-07-20T11:40:19;2.58;;;1.42;;
17727;SDS011;8984;49.268;12.302;2023-07-20T11:42:50;2.55;;;1.52;;
17727;SDS011;8984;49.268;12.302;2023-07-20T11:45:29;3.47;;;1.25;;
17727;SDS011;8984;49.268;12.302;2023-07-20T11:48:04;3.15;;;1.20;;
17727;SDS011;8984;49.268;12.302;2023-07-20T11:56:23;6.22;;;1.35;;
17727;SDS011;8984;49.268;12.302;2023-07-20T11:58:54;4.07;;;1.52;;
17727;SDS011;8984;49.268;12.302;2023-07-20T12:01:24;3.22;;;1.40;;
17727;SDS011;8984;49.268;12.302;2023-07-20T12:04:00;2.28;;;1.20;;
17727;SDS011;8984;49.268;12.302;2023-07-20T12:06:31;2.55;;;1.40;;
17727;SDS011;8984;49.268;12.302;2023-07-20T12:09:12;2.35;;;1.35;;
17727;SDS011;8984;49.268;12.302;2023-07-20T12:11:42;2.67;;;1.40;;
17727;SDS011;8984;49.268;12.302;2023-07-20T12:14:13;4.60;;;1.45;;
17727;SDS011;8984;49.268;12.302;2023-07-20T12:16:54;1.33;;;1.20;;
17727;SDS011;8984;49.268;12.302;2023-07-20T12:19:24;3.03;;;1.25;;
17727;SDS011;8984;49.268;12.302;2023-07-20T12:21:56;4.15;;;1.30;;
17727;SDS011;8984;49.268;12.302;2023-07-20T12:24:49;4.65;;;1.35;;
17727;SDS011;8984;49.268;12.302;2023-07-20T12:27:20;2.05;;;1.30;;
17727;SDS011;8984;49.268;12.302;2023-07-20T12:29:48;3.17;;;1.25;;
17727;SDS011;8984;49.268;12.302;2023-07-20T12:32:20;5.07;;;1.30;;
17727;SDS011;8984;49.268;12.302;2023-07-20T12:34:49;2.78;;;1.33;;
17727;SDS011;8984;49.268;12.302;2023-07-20T12:37:17;4.88;;;1.20;;
17727;SDS011;8984;49.268;12.302;2023-07-20T12:39:58;1.70;;;1.30;;
17727;SDS011;8984;49.268;12.302;2023-07-20T12:42:33;2.70;;;1.40;;
17727;SDS011;8984;49.268;12.302;2023-07-20T12:45:09;2.55;;;1.20;;
17727;SDS011;8984;49.268;12.302;2023-07-20T12:47:44;2.45;;;1.10;;
17727;SDS011;8984;49.268;12.302;2023-07-20T12:50:14;4.70;;;1.38;;
17727;SDS011;8984;49.268;12.302;2023-07-20T12:52:43;5.35;;;1.40;;
17727;SDS011;8984;49.268;12.302;2023-07-20T12:55:15;2.25;;;1.30;;
17727;SDS011;8984;49.268;12.302;2023-07-20T12:57:48;2.83;;;1.15;;
17727;SDS011;8984;49.268;12.302;2023-07-20T13:03:05;3.13;;;1.15;;
17727;SDS011;8984;49.268;12.302;2023-07-20T13:05:54;4.40;;;1.52;;
17727;SDS011;8984;49.268;12.302;2023-07-20T13:08:21;3.33;;;1.65;;
17727;SDS011;8984;49.268;12.302;2023-07-20T13:10:53;1.73;;;1.08;;
17727;SDS011;8984;49.268;12.302;2023-07-20T13:13:26;1.95;;;1.30;;
17727;SDS011;8984;49.268;12.302;2023-07-20T13:16:00;6.05;;;1.08;;
17727;SDS011;8984;49.268;12.302;2023-07-20T13:18:29;2.60;;;1.23;;
17727;SDS011;8984;49.268;12.302;2023-07-20T13:21:02;2.05;;;1.15;;
17727;SDS011;8984;49.268;12.302;2023-07-20T13:23:42;3.75;;;1.25;;
17727;SDS011;8984;49.268;12.302;2023-07-20T13:26:12;1.95;;;1.10;;
17727;SDS011;8984;49.268;12.302;2023-07-20T13:28:45;2.20;;;1.50;;
17727;SDS011;8984;49.268;12.302;2023-07-20T13:31:26;4.07;;;1.30;;
17727;SDS011;8984;49.268;12.302;2023-07-20T13:33:56;2.58;;;1.25;;
17727;SDS011;8984;49.268;12.302;2023-07-20T13:36:29;2.70;;;1.25;;
17727;SDS011;8984;49.268;12.302;2023-07-20T13:38:58;3.88;;;1.30;;
17727;SDS011;8984;49.268;12.302;2023-07-20T13:41:30;2.55;;;1.13;;
17727;SDS011;8984;49.268;12.302;2023-07-20T13:43:59;4.07;;;1.15;;
17727;SDS011;8984;49.268;12.302;2023-07-20T13:46:28;4.05;;;1.13;;
17727;SDS011;8984;49.268;12.302;2023-07-20T13:48:58;5.35;;;1.20;;
17727;SDS011;8984;49.268;12.302;2023-07-20T13:51:32;3.63;;;1.30;;
17727;SDS011;8984;49.268;12.302;2023-07-20T13:53:59;1.52;;;1.15;;
17727;SDS011;8984;49.268;12.302;2023-07-20T13:56:29;3.55;;;1.23;;
17727;SDS011;8984;49.268;12.302;2023-07-20T13:58:59;3.05;;;1.23;;
17727;SDS011;8984;49.268;12.302;2023-07-20T14:01:28;4.07;;;1.17;;
17727;SDS011;8984;49.268;12.302;2023-07-20T14:04:00;4.93;;;1.40;;
17727;SDS011;8984;49.268;12.302;2023-07-20T14:06:32;2.78;;;1.25;;
17727;SDS011;8984;49.268;12.302;2023-07-20T14:09:02;2.65;;;1.15;;
17727;SDS011;8984;49.268;12.302;2023-07-20T14:11:50;2.03;;;1.20;;
17727;SDS011;8984;49.268;12.302;2023-07-20T14:14:22;1.70;;;0.95;;
17727;SDS011;8984;49.268;12.302;2023-07-20T14:16:58;4.70;;;1.10;;
17727;SDS011;8984;49.268;12.302;2023-07-20T14:19:33;1.77;;;1.00;;
17727;SDS011;8984;49.268;12.302;2023-07-20T14:22:01;1.92;;;1.02;;
17727;SDS011;8984;49.268;12.302;2023-07-20T14:24:29;1.45;;;0.90;;
17727;SDS011;8984;49.268;12.302;2023-07-20T14:27:11;1.88;;;1.10;;
17727;SDS011;8984;49.268;12.302;2023-07-20T14:29:41;4.57;;;0.90;;
17727;SDS011;8984;49.268;12.302;2023-07-20T14:32:13;1.40;;;0.77;;
17727;SDS011;8984;49.268;12.302;2023-07-20T14:34:41;2.75;;;1.20;;
17727;SDS011;8984;49.268;12.302;2023-07-20T14:37:16;5.20;;;1.38;;
17727;SDS011;8984;49.268;12.302;2023-07-20T14:39:51;1.40;;;1.00;;
17727;SDS011;8984;49.268;12.302;2023-07-20T14:42:24;4.50;;;1.02;;
17727;SDS011;8984;49.268;12.302;2023-07-20T14:44:52;1.25;;;0.88;;
17727;SDS011;8984;49.268;12.302;2023-07-20T14:47:24;1.85;;;1.00;;
17727;SDS011;8984;49.268;12.302;2023-07-20T14:49:53;1.45;;;0.95;;
17727;SDS011;8984;49.268;12.302;2023-07-20T14:52:22;2.05;;;1.00;;
17727;SDS011;8984;49.268;12.302;2023-07-20T14:54:51;6.43;;;1.05;;
17727;SDS011;8984;49.268;12.302;2023-07-20T14:57:24;3.38;;;1.10;;
17727;SDS011;8984;49.268;12.302;2023-07-20T15:00:03;1.67;;;1.00;;
17727;SDS011;8984;49.268;12.302;2023-07-20T15:02:35;2.97;;;0.90;;
17727;SDS011;8984;49.268;12.302;2023-07-20T15:05:08;5.18;;;1.30;;
17727;SDS011;8984;49.268;12.302;2023-07-20T15:07:36;1.80;;;1.13;;
17727;SDS011;8984;49.268;12.302;2023-07-20T15:10:05;3.75;;;1.02;;
17727;SDS011;8984;49.268;12.302;2023-07-20T15:12:40;2.22;;;1.10;;
17727;SDS011;8984;49.268;12.302;2023-07-20T15:15:08;1.70;;;1.00;;
17727;SDS011;8984;49.268;12.302;2023-07-20T15:17:38;1.67;;;0.95;;
17727;SDS011;8984;49.268;12.302;2023-07-20T15:20:08;1.60;;;0.95;;
17727;SDS011;8984;49.268;12.302;2023-07-20T15:22:45;1.27;;;0.80;;
17727;SDS011;8984;49.268;12.302;2023-07-20T15:25:20;2.42;;;0.98;;
17727;SDS011;8984;49.268;12.302;2023-07-20T15:27:52;1.63;;;0.90;;
17727;SDS011;8984;49.268;12.302;2023-07-20T15:30:21;1.20;;;0.80;;
17727;SDS011;8984;49.268;12.302;2023-07-20T15:32:49;4.10;;;0.68;;
17727;SDS011;8984;49.268;12.302;2023-07-20T15:35:19;3.65;;;0.90;;
17727;SDS011;8984;49.268;12.302;2023-07-20T15:37:52;2.38;;;1.10;;
17727;SDS011;8984;49.268;12.302;2023-07-20T15:40:35;1.83;;;0.90;;
17727;SDS011;8984;49.268;12.302;2023-07-20T15:43:14;1.48;;;0.90;;
17727;SDS011;8984;49.268;12.302;2023-07-20T15:45:46;1.30;;;1.02;;
17727;SDS011;8984;49.268;12.302;2023-07-20T15:48:15;5.00;;;1.00;;
17727;SDS011;8984;49.268;12.302;2023-07-20T15:51:00;1.98;;;0.88;;
17727;SDS011;8984;49.268;12.302;2023-07-20T15:53:30;3.55;;;1.15;;
17727;SDS011;8984;49.268;12.302;2023-07-20T15:56:03;3.10;;;0.90;;
17727;SDS011;8984;49.268;12.302;2023-07-20T15:58:35;3.50;;;1.10;;